createdAt,value
2023-03-27T04:40:51.745Z,100.00
2023-03-27T04:43:18.836Z,100.00
2023-03-27T04:45:47.474Z,100.00
2023-03-27T04:48:17.482Z,100.00
2023-03-27T04:50:50.147Z,100.00
2023-03-27T04:53:31.677Z,100.00
2023-03-27T04:56:00.562Z,100.00
2023-03-27T04:58:27.791Z,100.00
2023-03-27T05:00:56.788Z,100.00
2023-03-27T05:03:25.399Z,100.00
2023-03-27T05:05:58.932Z,100.00
2023-03-27T05:08:26.843Z,100.00
2023-03-27T05:10:54.541Z,100.00
2023-03-27T05:13:22.460Z,100.00
2023-03-27T05:15:50.189Z,100.00
2023-03-27T05:18:18.464Z,100.00
2023-03-27T05:20:50.179Z,100.00
2023-03-27T05:23:18.454Z,100.00
2023-03-27T05:25:59.805Z,100.00
2023-03-27T05:28:39.194Z,100.00
2023-03-27T05:31:10.112Z,100.00
2023-03-27T05:33:48.116Z,100.00
2023-03-27T05:36:30.749Z,100.00
2023-03-27T05:39:22.790Z,100.00
2023-03-27T05:42:00.786Z,100.00
2023-03-27T05:44:33.461Z,100.00
2023-03-27T05:47:00.581Z,100.00
2023-03-27T05:49:33.543Z,100.00
2023-03-27T05:52:15.549Z,100.00
2023-03-27T05:54:42.307Z,100.00
2023-03-27T05:57:16.202Z,100.00
2023-03-27T05:59:45.145Z,100.00
2023-03-27T06:02:21.297Z,100.00
2023-03-27T06:05:01.167Z,100.00
2023-03-27T06:07:34.738Z,100.00
2023-03-27T06:10:07.263Z,100.00
2023-03-27T06:13:03.183Z,100.00
2023-03-27T06:15:37.065Z,100.00
2023-03-27T06:18:14.999Z,100.00
2023-03-27T06:20:42.894Z,100.00
2023-03-27T06:23:09.975Z,100.00
2023-03-27T06:25:38.623Z,100.00
2023-03-27T06:28:09.923Z,100.00
2023-03-27T06:30:48.052Z,100.00
2023-03-27T06:33:46.726Z,100.00
2023-03-27T06:36:28.167Z,100.00
2023-03-27T06:38:55.866Z,99.92
2023-03-27T06:41:23.086Z,99.52
2023-03-27T06:44:07.301Z,99.28
2023-03-27T06:46:53.601Z,98.56
2023-03-27T06:49:29.499Z,98.18
2023-03-27T06:52:00.956Z,97.20
2023-03-27T06:54:28.764Z,95.82
2023-03-27T06:56:55.611Z,95.16
2023-03-27T06:59:23.160Z,95.81
2023-03-27T07:01:54.746Z,94.06
2023-03-27T07:04:54.243Z,93.64
2023-03-27T07:07:34.223Z,93.86
2023-03-27T07:10:02.089Z,93.12
2023-03-27T07:12:32.004Z,92.59
2023-03-27T07:14:58.721Z,92.42
2023-03-27T07:17:34.888Z,91.37
2023-03-27T07:20:16.929Z,91.07
2023-03-27T07:22:44.280Z,90.95
2023-03-27T07:25:24.717Z,91.00
2023-03-27T07:27:51.604Z,90.55
2023-03-27T07:30:18.375Z,89.07
2023-03-27T07:32:57.215Z,86.68
2023-03-27T07:35:24.760Z,86.79
2023-03-27T07:38:11.300Z,86.88
2023-03-27T07:40:42.550Z,87.04
2023-03-27T07:43:38.464Z,83.69
2023-03-27T07:46:07.310Z,79.33
2023-03-27T07:48:35.220Z,79.86
2023-03-27T07:51:13.938Z,80.04
2023-03-27T07:53:41.047Z,80.17
2023-03-27T07:56:20.365Z,80.96
2023-03-27T07:58:48.420Z,81.03
2023-03-27T08:01:19.846Z,79.66
2023-03-27T08:03:50.309Z,78.21
2023-03-27T08:06:18.316Z,77.70
2023-03-27T08:08:45.577Z,76.94
2023-03-27T08:11:23.247Z,76.73
2023-03-27T08:13:57.882Z,76.31
2023-03-27T08:16:28.309Z,74.04
2023-03-27T08:18:57.056Z,73.95
2023-03-27T08:21:23.999Z,72.40
2023-03-27T08:23:56.165Z,71.42
2023-03-27T08:26:34.618Z,71.49
2023-03-27T08:29:08.274Z,71.36
2023-03-27T08:31:35.374Z,70.51
2023-03-27T08:34:03.993Z,70.63
2023-03-27T08:36:40.616Z,70.74
2023-03-27T08:39:08.236Z,69.96
2023-03-27T08:42:17.173Z,69.97
2023-03-27T08:44:52.454Z,69.35
2023-03-27T08:47:33.399Z,69.21
2023-03-27T08:50:06.575Z,68.01
2023-03-27T08:52:45.644Z,68.53
2023-03-27T08:55:21.677Z,66.81
2023-03-27T08:57:54.243Z,65.61
2023-03-27T09:00:24.965Z,63.55
2023-03-27T09:03:01.148Z,64.07
2023-03-27T09:05:48.731Z,63.94
2023-03-27T09:08:20.690Z,63.16
2023-03-27T09:10:51.314Z,63.61
2023-03-27T09:13:42.116Z,62.91
2023-03-27T09:16:28.449Z,62.55
2023-03-27T09:18:59.039Z,61.75
2023-03-27T09:21:41.070Z,61.86
2023-03-27T09:24:13.212Z,63.63
2023-03-27T09:27:23.689Z,64.21
2023-03-27T09:30:05.840Z,63.03
2023-03-27T09:32:55.673Z,61.55
2023-03-27T09:35:23.030Z,61.56
2023-03-27T09:37:58.650Z,60.69
2023-03-27T09:40:30.074Z,60.58
2023-03-27T09:42:59.093Z,59.50
2023-03-27T09:45:25.682Z,60.00
2023-03-27T09:48:03.390Z,60.04
2023-03-27T09:50:43.892Z,58.62
2023-03-27T09:53:18.377Z,57.22
2023-03-27T09:56:04.791Z,55.61
2023-03-27T09:58:43.309Z,54.88
2023-03-27T10:01:12.662Z,54.30
2023-03-27T10:03:42.308Z,54.35
2023-03-27T10:06:10.545Z,55.54
2023-03-27T10:09:06.706Z,55.03
